Hootenville, Louisiana
Current Conditions -  °F | °C
As of 12:53 PM on Friday 28 Nov 2014 (Local Time) from KASD Reporting Station
Clear Clear  
Wind Chill: 60°   Ceiling: Unl
Heat Index: 60°   Visibility: 10mi
Dew Point: 29°   Wind: 5mph
Humidity: 31%   Direction: NA
Pressure: 30.34"   Gusts: NA
Location:  30.3898°N, 90.0068°W
Report Text: KASD 281853Z AUTO VRB04KT 10SM CLR 16/M02 A3034 RMK AO2 SLP275 T01561017
Loading
Personal Weather Stations






























Interactive Weather Map New forecast layout! Learn more

10-Day Weather Forecast

Advertisements
Track Severe Weather on mobile